createdAt,value
2019-03-26T00:02:13.804Z,12.97
2019-03-26T00:04:42.092Z,19.70
2019-03-26T00:07:10.364Z,13.53
2019-03-26T00:09:38.714Z,14.07
2019-03-26T00:12:06.994Z,16.70
2019-03-26T00:14:35.259Z,14.60
2019-03-26T00:17:03.548Z,13.80
2019-03-26T00:19:31.835Z,10.47
2019-03-26T00:22:00.097Z,16.47
2019-03-26T00:24:28.370Z,12.23
2019-03-26T00:26:56.772Z,17.27
2019-03-26T00:29:25.050Z,13.20
2019-03-26T00:31:53.326Z,11.57
2019-03-26T00:34:21.614Z,9.70
2019-03-26T00:36:50.003Z,15.80
2019-03-26T00:39:18.263Z,13.93
2019-03-26T00:41:46.558Z,14.83
2019-03-26T00:44:14.812Z,14.20
2019-03-26T00:46:43.092Z,13.50
2019-03-26T00:49:11.378Z,13.63
2019-03-26T00:51:39.731Z,19.47
2019-03-26T00:54:07.988Z,16.93
2019-03-26T00:56:36.289Z,17.33
2019-03-26T00:59:04.566Z,16.40
2019-03-26T01:01:32.904Z,16.23
2019-03-26T01:04:01.180Z,16.73
2019-03-26T01:06:29.472Z,18.50
2019-03-26T01:08:57.733Z,16.90
2019-03-26T01:11:25.982Z,18.20
2019-03-26T01:13:54.269Z,18.93
2019-03-26T01:16:22.559Z,22.93
2019-03-26T01:18:50.852Z,20.03
2019-03-26T01:21:19.159Z,18.20
2019-03-26T01:23:47.418Z,17.93
2019-03-26T01:26:15.740Z,22.60
2019-03-26T01:28:44.060Z,16.40
2019-03-26T01:31:12.310Z,17.20
2019-03-26T01:33:40.599Z,19.23
2019-03-26T01:36:08.876Z,15.87
2019-03-26T01:38:37.210Z,20.07
2019-03-26T01:41:05.470Z,14.57
2019-03-26T01:43:33.752Z,19.97
2019-03-26T01:46:02.016Z,15.93
2019-03-26T01:48:30.354Z,18.93
2019-03-26T01:50:58.598Z,19.40
2019-03-26T01:53:26.878Z,20.80
2019-03-26T01:55:55.132Z,19.50
2019-03-26T01:58:23.439Z,23.30
2019-03-26T02:00:51.705Z,17.43
2019-03-26T02:03:20.059Z,21.77
2019-03-26T02:05:48.324Z,14.30
2019-03-26T02:08:16.597Z,17.13
2019-03-26T02:10:44.857Z,14.90
2019-03-26T02:13:13.133Z,16.43
2019-03-26T02:15:41.374Z,24.17
2019-03-26T02:18:09.681Z,20.33
2019-03-26T02:20:38.000Z,15.03
2019-03-26T02:23:06.250Z,11.43
2019-03-26T02:25:34.642Z,17.50
2019-03-26T02:28:02.912Z,18.73
2019-03-26T02:30:31.260Z,17.77
2019-03-26T02:32:59.543Z,14.13
2019-03-26T02:35:27.907Z,18.17
2019-03-26T02:37:56.242Z,20.47
2019-03-26T02:40:24.524Z,11.30
2019-03-26T02:42:52.810Z,15.37
2019-03-26T02:45:21.115Z,15.37
2019-03-26T02:47:49.358Z,16.17
2019-03-26T02:50:17.656Z,14.33
2019-03-26T02:52:45.980Z,14.23
2019-03-26T02:55:14.899Z,15.70
2019-03-26T02:57:43.186Z,18.80
2019-03-26T03:00:11.459Z,11.13
2019-03-26T03:02:39.718Z,14.13
2019-03-26T03:05:08.039Z,15.47
2019-03-26T03:07:36.337Z,15.37
2019-03-26T03:10:06.161Z,17.20
2019-03-26T03:12:34.434Z,17.67
2019-03-26T03:15:02.810Z,15.30
2019-03-26T03:17:31.162Z,14.77
2019-03-26T03:19:59.408Z,18.53
2019-03-26T03:22:27.701Z,14.33
2019-03-26T03:24:56.108Z,15.60
2019-03-26T03:27:24.395Z,15.67
2019-03-26T03:29:52.657Z,16.57
2019-03-26T03:32:20.941Z,11.80
2019-03-26T03:34:49.195Z,15.00
2019-03-26T03:37:17.486Z,14.10
2019-03-26T03:39:45.761Z,13.37
2019-03-26T03:42:14.036Z,20.70
2019-03-26T03:44:42.299Z,13.70
2019-03-26T03:47:11.072Z,10.83
2019-03-26T03:49:39.327Z,12.10
2019-03-26T03:52:07.606Z,12.43
2019-03-26T03:54:35.940Z,12.47
2019-03-26T03:57:04.231Z,14.77
2019-03-26T03:59:32.545Z,12.93
2019-03-26T04:02:00.837Z,14.23
2019-03-26T04:04:29.093Z,9.73
2019-03-26T04:06:57.393Z,11.17
2019-03-26T04:09:25.660Z,16.30
2019-03-26T04:11:53.968Z,20.50
2019-03-26T04:14:22.273Z,11.70
2019-03-26T04:16:50.653Z,11.13
2019-03-26T04:19:18.919Z,16.77
2019-03-26T04:21:47.163Z,9.13
2019-03-26T04:24:15.451Z,11.77
2019-03-26T04:26:43.698Z,10.70
2019-03-26T04:29:12.068Z,10.77
2019-03-26T04:31:40.310Z,14.33
2019-03-26T04:34:08.600Z,10.63
2019-03-26T04:36:36.849Z,15.30
2019-03-26T04:39:06.898Z,13.73
2019-03-26T04:41:35.504Z,17.07
2019-03-26T04:44:03.788Z,11.50
2019-03-26T04:46:32.050Z,11.87
2019-03-26T04:49:00.364Z,11.13
2019-03-26T04:51:28.652Z,17.23
2019-03-26T04:53:56.920Z,7.80
2019-03-26T04:56:25.183Z,17.37
2019-03-26T04:58:53.465Z,10.10
2019-03-26T05:01:21.733Z,11.33
2019-03-26T05:03:50.019Z,10.87
2019-03-26T05:06:18.285Z,6.93
2019-03-26T05:08:46.627Z,11.17
2019-03-26T05:11:14.903Z,11.23
2019-03-26T05:13:43.168Z,12.93
2019-03-26T05:16:11.451Z,14.17
2019-03-26T05:18:39.703Z,8.93
2019-03-26T05:21:07.996Z,8.10
2019-03-26T05:23:36.271Z,14.93
2019-03-26T05:26:04.656Z,6.87
2019-03-26T05:28:32.987Z,17.43
2019-03-26T05:31:01.267Z,13.43
2019-03-26T05:33:29.521Z,11.50
2019-03-26T05:35:57.800Z,12.80
2019-03-26T05:38:26.067Z,12.10
2019-03-26T05:40:54.349Z,13.97
2019-03-26T05:43:22.588Z,9.33
2019-03-26T05:45:50.867Z,8.30
2019-03-26T05:48:19.146Z,14.67
2019-03-26T05:50:47.454Z,9.43
2019-03-26T05:53:15.764Z,6.77
2019-03-26T05:55:44.094Z,12.13
2019-03-26T05:58:12.349Z,13.73
2019-03-26T06:00:40.623Z,15.87
2019-03-26T06:03:08.983Z,12.83
2019-03-26T06:05:37.286Z,12.60
2019-03-26T06:08:05.554Z,13.83
2019-03-26T06:10:33.859Z,13.37
2019-03-26T06:13:02.126Z,12.87
2019-03-26T06:15:30.377Z,21.23
2019-03-26T06:17:58.665Z,11.83
2019-03-26T06:20:26.924Z,9.27
2019-03-26T06:22:55.237Z,12.43
2019-03-26T06:25:23.568Z,12.87
2019-03-26T06:27:51.842Z,14.20
2019-03-26T06:30:20.117Z,8.93
2019-03-26T06:32:48.405Z,12.10
2019-03-26T06:35:16.678Z,13.80
2019-03-26T06:37:44.956Z,11.13
2019-03-26T06:40:13.236Z,8.23
2019-03-26T06:42:41.519Z,8.90
2019-03-26T06:45:10.441Z,8.27
2019-03-26T06:47:38.717Z,7.00
2019-03-26T06:50:08.523Z,15.33
2019-03-26T06:52:36.801Z,13.63
2019-03-26T06:55:08.635Z,14.93
2019-03-26T06:57:37.307Z,11.40
2019-03-26T07:00:07.559Z,12.93
2019-03-26T07:02:35.877Z,14.17
2019-03-26T07:05:04.497Z,19.83
2019-03-26T07:07:32.813Z,16.23
2019-03-26T07:10:01.083Z,12.53
2019-03-26T07:12:29.377Z,11.43
2019-03-26T07:14:57.748Z,14.47
2019-03-26T07:17:27.251Z,15.60
2019-03-26T07:19:55.673Z,11.73
2019-03-26T07:22:23.936Z,15.10
2019-03-26T07:24:52.243Z,15.33
2019-03-26T07:27:20.503Z,10.73
2019-03-26T07:29:48.816Z,13.93
2019-03-26T07:32:17.063Z,14.43
2019-03-26T07:34:45.327Z,14.10
2019-03-26T07:37:13.592Z,12.70
2019-03-26T07:39:41.876Z,13.90
2019-03-26T07:42:10.140Z,11.23
2019-03-26T07:44:38.394Z,12.37
2019-03-26T07:47:06.700Z,14.27
2019-03-26T07:49:34.969Z,10.17
2019-03-26T07:52:03.249Z,7.87
2019-03-26T07:54:32.706Z,10.77
2019-03-26T07:57:01.104Z,19.93
2019-03-26T07:59:29.503Z,14.80
2019-03-26T08:01:57.791Z,12.23
2019-03-26T08:04:26.122Z,17.57
2019-03-26T08:06:54.413Z,16.83
2019-03-26T08:09:22.801Z,15.33
2019-03-26T08:11:51.146Z,14.23
2019-03-26T08:14:19.408Z,15.27
2019-03-26T08:16:47.767Z,14.33
2019-03-26T08:19:16.073Z,11.97
2019-03-26T08:21:44.379Z,9.90
2019-03-26T08:24:12.650Z,15.07
2019-03-26T08:26:40.922Z,12.50
2019-03-26T08:29:09.177Z,11.83
2019-03-26T08:31:37.474Z,13.80
2019-03-26T08:34:05.733Z,13.03
2019-03-26T08:36:34.087Z,14.87
2019-03-26T08:39:02.464Z,15.20
2019-03-26T08:41:30.769Z,10.43
2019-03-26T08:43:59.044Z,11.80
2019-03-26T08:46:27.303Z,15.63
2019-03-26T08:48:55.596Z,17.93
2019-03-26T08:51:23.878Z,12.87
2019-03-26T08:53:52.228Z,14.80
2019-03-26T08:56:20.570Z,14.53
2019-03-26T08:58:48.933Z,10.13
2019-03-26T09:01:17.243Z,9.40
2019-03-26T09:03:45.574Z,11.23
2019-03-26T09:06:13.902Z,12.03
2019-03-26T09:08:42.218Z,17.07
2019-03-26T09:11:10.543Z,11.67
2019-03-26T09:13:38.833Z,10.63
2019-03-26T09:16:07.097Z,12.87
2019-03-26T09:18:35.407Z,13.60
2019-03-26T09:21:03.679Z,15.87
2019-03-26T09:23:31.980Z,11.67
2019-03-26T09:26:00.317Z,11.10
2019-03-26T09:28:28.686Z,11.90
2019-03-26T09:30:56.943Z,14.33
2019-03-26T09:33:25.239Z,13.53
2019-03-26T09:35:53.513Z,12.93
2019-03-26T09:38:21.839Z,13.13
2019-03-26T09:40:50.120Z,15.83
2019-03-26T09:43:18.388Z,12.60
2019-03-26T09:45:46.689Z,14.50
2019-03-26T09:48:14.952Z,14.73
2019-03-26T09:50:43.215Z,12.60
2019-03-26T09:53:11.481Z,7.57
2019-03-26T09:55:39.778Z,13.47
2019-03-26T09:58:08.038Z,13.20
2019-03-26T10:00:36.366Z,9.97
2019-03-26T10:03:04.753Z,10.67
2019-03-26T10:05:33.100Z,14.27
2019-03-26T10:08:01.380Z,13.27
2019-03-26T10:10:29.647Z,9.90
2019-03-26T10:12:57.888Z,8.13
2019-03-26T10:15:26.240Z,9.20
2019-03-26T10:17:54.511Z,11.43
2019-03-26T10:20:22.791Z,5.57
2019-03-26T10:22:51.140Z,12.30
2019-03-26T10:25:19.414Z,10.43
2019-03-26T10:27:47.684Z,7.83
2019-03-26T10:30:18.264Z,7.50
2019-03-26T10:32:46.537Z,7.80
2019-03-26T10:35:14.914Z,10.63
2019-03-26T10:37:43.183Z,6.53
2019-03-26T10:40:14.683Z,9.07
2019-03-26T10:42:42.964Z,14.37
2019-03-26T10:45:11.222Z,11.33
2019-03-26T10:47:39.506Z,12.70
2019-03-26T10:50:07.772Z,4.70
2019-03-26T10:52:36.060Z,9.43
2019-03-26T10:55:05.558Z,7.00
2019-03-26T10:57:34.446Z,7.63
2019-03-26T11:00:03.819Z,8.23
2019-03-26T11:02:32.105Z,9.20
2019-03-26T11:05:00.378Z,4.07
2019-03-26T11:07:28.704Z,5.07
2019-03-26T11:09:56.962Z,3.10
2019-03-26T11:12:25.253Z,6.87
2019-03-26T11:14:53.514Z,10.67
2019-03-26T11:17:21.849Z,6.13
2019-03-26T11:19:50.192Z,8.30
2019-03-26T11:22:18.472Z,5.27
2019-03-26T11:24:46.767Z,6.07
2019-03-26T11:27:15.044Z,6.23
2019-03-26T11:29:43.343Z,7.40
2019-03-26T11:32:11.604Z,8.40
2019-03-26T11:34:39.944Z,9.53
2019-03-26T11:37:08.238Z,7.83
2019-03-26T11:39:36.578Z,5.53
2019-03-26T11:42:04.838Z,7.90
2019-03-26T11:44:33.248Z,6.07
2019-03-26T11:47:01.527Z,7.47
2019-03-26T11:49:29.844Z,7.57
2019-03-26T11:51:58.108Z,6.47
2019-03-26T11:54:26.471Z,10.17
2019-03-26T11:56:54.816Z,8.07
2019-03-26T11:59:23.079Z,8.40
2019-03-26T12:01:52.538Z,13.83
2019-03-26T12:04:21.082Z,4.77
2019-03-26T12:06:49.338Z,8.73
2019-03-26T12:09:17.606Z,5.70
2019-03-26T12:11:45.877Z,8.60
2019-03-26T12:14:14.248Z,12.27
2019-03-26T12:16:42.485Z,9.67
2019-03-26T12:19:10.801Z,6.77
2019-03-26T12:21:39.078Z,6.20
2019-03-26T12:24:07.397Z,8.37
2019-03-26T12:26:35.682Z,9.57
2019-03-26T12:29:03.928Z,8.43
2019-03-26T12:31:32.212Z,9.27
2019-03-26T12:34:00.503Z,8.63
2019-03-26T12:36:39.458Z,13.60
2019-03-26T12:38:58.776Z,9.67
2019-03-26T12:41:27.058Z,15.17
2019-03-26T12:43:55.399Z,13.17
2019-03-26T12:46:23.718Z,9.13
2019-03-26T12:48:52.041Z,9.73
2019-03-26T12:51:20.324Z,12.67
2019-03-26T12:53:48.583Z,13.50
2019-03-26T12:56:16.875Z,11.57
2019-03-26T12:58:45.168Z,15.03
2019-03-26T13:01:13.526Z,13.43
2019-03-26T13:03:42.093Z,14.33
2019-03-26T13:06:10.411Z,10.77
2019-03-26T13:08:38.744Z,13.47
2019-03-26T13:11:07.058Z,9.03
2019-03-26T13:13:35.391Z,15.47
2019-03-26T13:16:03.650Z,11.17
2019-03-26T13:18:31.960Z,11.40
2019-03-26T13:21:00.274Z,10.17
2019-03-26T13:23:28.572Z,9.53
2019-03-26T13:25:56.841Z,7.20
2019-03-26T13:28:25.134Z,10.73
2019-03-26T13:30:53.402Z,10.57
2019-03-26T13:33:21.703Z,11.80
2019-03-26T13:35:49.967Z,10.57
2019-03-26T13:38:18.310Z,12.80
2019-03-26T13:40:46.584Z,7.23
2019-03-26T13:43:14.870Z,10.70
2019-03-26T13:45:43.148Z,8.00
2019-03-26T13:48:11.431Z,7.53
2019-03-26T13:50:39.762Z,11.97
2019-03-26T13:53:08.084Z,4.93
2019-03-26T13:55:36.430Z,12.43
2019-03-26T13:58:04.742Z,13.07
2019-03-26T14:00:34.675Z,8.93
2019-03-26T14:03:02.946Z,12.77
2019-03-26T14:05:31.207Z,10.27
2019-03-26T14:07:59.473Z,6.93
2019-03-26T14:10:40.261Z,13.50
2019-03-26T14:12:57.727Z,6.80
2019-03-26T14:15:26.008Z,9.17
2019-03-26T14:17:54.258Z,11.77
2019-03-26T14:20:22.575Z,5.67
2019-03-26T14:22:50.889Z,13.53
2019-03-26T14:25:19.180Z,7.30
2019-03-26T14:27:47.447Z,7.83
2019-03-26T14:30:19.071Z,9.30
2019-03-26T14:32:47.318Z,7.53
2019-03-26T14:35:15.593Z,7.23
2019-03-26T14:37:50.999Z,10.40
2019-03-26T14:40:13.886Z,7.40
2019-03-26T14:42:42.146Z,11.70
2019-03-26T14:45:10.428Z,6.23
2019-03-26T14:47:38.689Z,7.87
2019-03-26T14:50:07.044Z,9.40
2019-03-26T14:52:35.284Z,6.90
2019-03-26T14:55:04.568Z,11.37
2019-03-26T14:57:32.986Z,7.43
2019-03-26T15:00:01.276Z,10.67
2019-03-26T15:02:29.606Z,14.20
2019-03-26T15:04:57.922Z,7.67
2019-03-26T15:07:26.249Z,8.07
2019-03-26T15:09:54.558Z,9.47
2019-03-26T15:12:22.847Z,8.77
2019-03-26T15:14:51.121Z,7.70
2019-03-26T15:17:19.435Z,7.50
2019-03-26T15:19:47.687Z,9.73
2019-03-26T15:22:16.078Z,6.77
2019-03-26T15:24:44.420Z,10.30
2019-03-26T15:27:12.708Z,10.53
2019-03-26T15:29:41.065Z,9.47
2019-03-26T15:32:09.419Z,10.67
2019-03-26T15:34:37.701Z,10.93
2019-03-26T15:37:06.151Z,9.57
2019-03-26T15:39:34.428Z,10.77
2019-03-26T15:42:02.698Z,9.47
2019-03-26T15:44:30.997Z,11.07
2019-03-26T15:46:59.279Z,8.70
2019-03-26T15:49:27.639Z,14.20
2019-03-26T15:51:55.942Z,9.43
2019-03-26T15:54:24.199Z,7.03
2019-03-26T15:56:52.593Z,9.97
2019-03-26T15:59:20.843Z,13.53
2019-03-26T16:01:49.122Z,7.37
2019-03-26T16:04:17.417Z,10.33
2019-03-26T16:06:45.717Z,9.43
2019-03-26T16:09:14.026Z,8.70
2019-03-26T16:11:42.353Z,8.47
2019-03-26T16:14:10.682Z,8.20
2019-03-26T16:16:39.031Z,9.70
2019-03-26T16:19:07.323Z,8.87
2019-03-26T16:21:35.660Z,7.93
2019-03-26T16:24:04.052Z,11.53
2019-03-26T16:26:32.395Z,8.70
2019-03-26T16:29:00.698Z,10.57
2019-03-26T16:31:28.994Z,10.27
2019-03-26T16:33:57.378Z,9.83
2019-03-26T16:36:25.749Z,11.53
2019-03-26T16:38:54.131Z,10.47
2019-03-26T16:41:22.473Z,12.63
2019-03-26T16:43:50.839Z,12.60
2019-03-26T16:46:19.116Z,13.87
2019-03-26T16:48:49.158Z,13.33
2019-03-26T16:51:17.431Z,7.30
2019-03-26T16:53:45.670Z,11.43
2019-03-26T16:56:13.986Z,12.13
2019-03-26T16:58:42.273Z,9.60
2019-03-26T17:01:10.707Z,10.43
2019-03-26T17:03:38.996Z,10.10
2019-03-26T17:06:07.404Z,10.57
2019-03-26T17:08:35.902Z,10.60
2019-03-26T17:11:04.308Z,11.17
2019-03-26T17:13:32.641Z,10.30
2019-03-26T17:16:00.947Z,12.00
2019-03-26T17:18:29.303Z,10.53
2019-03-26T17:20:57.611Z,9.13
2019-03-26T17:23:25.865Z,8.63
2019-03-26T17:25:54.186Z,10.27
2019-03-26T17:28:22.446Z,11.53
2019-03-26T17:30:50.771Z,13.10
2019-03-26T17:33:19.097Z,12.43
2019-03-26T17:35:47.389Z,9.63
2019-03-26T17:38:15.686Z,10.47
2019-03-26T17:40:43.978Z,13.37
2019-03-26T17:43:12.250Z,13.37
2019-03-26T17:45:40.637Z,12.07
2019-03-26T17:48:09.002Z,16.37
2019-03-26T17:50:37.365Z,15.80
2019-03-26T17:53:05.652Z,14.80
2019-03-26T17:55:33.993Z,15.47
2019-03-26T17:58:02.336Z,13.63
2019-03-26T18:00:43.893Z,13.17
2019-03-26T18:03:25.136Z,14.73
2019-03-26T18:05:42.193Z,11.43
2019-03-26T18:08:10.485Z,10.57
2019-03-26T18:10:38.782Z,11.87
2019-03-26T18:13:07.091Z,14.87
2019-03-26T18:15:35.426Z,14.73
2019-03-26T18:18:03.721Z,14.27
2019-03-26T18:20:33.158Z,15.03
2019-03-26T18:23:01.573Z,13.40
2019-03-26T18:25:29.873Z,10.43
2019-03-26T18:27:58.300Z,19.33
2019-03-26T18:30:26.571Z,13.10
2019-03-26T18:32:54.869Z,9.77
2019-03-26T18:35:23.152Z,14.57
2019-03-26T18:37:51.537Z,13.13
2019-03-26T18:40:19.981Z,17.30
2019-03-26T18:42:48.303Z,14.67
2019-03-26T18:45:16.665Z,14.00
2019-03-26T18:47:44.996Z,12.80
2019-03-26T18:50:13.355Z,11.70
2019-03-26T18:52:41.822Z,13.93
2019-03-26T18:55:10.199Z,11.97
2019-03-26T18:57:38.475Z,14.67
2019-03-26T19:00:12.323Z,13.00
2019-03-26T19:02:40.601Z,15.43
2019-03-26T19:05:08.966Z,15.20
2019-03-26T19:07:37.223Z,16.70
2019-03-26T19:10:08.029Z,16.87
2019-03-26T19:12:36.330Z,19.20
2019-03-26T19:15:06.317Z,20.47
2019-03-26T19:17:34.603Z,17.30
2019-03-26T19:20:03.093Z,20.63
2019-03-26T19:22:52.230Z,17.13
2019-03-26T19:25:33.040Z,18.23
2019-03-26T19:28:13.982Z,17.43
2019-03-26T19:30:54.727Z,22.07
2019-03-26T19:33:35.876Z,15.70
2019-03-26T19:36:16.463Z,19.63
2019-03-26T19:38:57.201Z,18.53
2019-03-26T19:41:37.911Z,18.00
2019-03-26T19:44:18.475Z,15.47
2019-03-26T19:46:59.227Z,22.37
2019-03-26T19:49:40.108Z,19.37
2019-03-26T19:52:20.807Z,17.07
2019-03-26T19:55:01.552Z,17.57
2019-03-26T19:57:42.058Z,21.33
2019-03-26T20:00:22.481Z,17.27
2019-03-26T20:03:03.279Z,23.83
2019-03-26T20:05:44.041Z,17.10
2019-03-26T20:08:24.580Z,20.33
2019-03-26T20:11:05.241Z,22.10
2019-03-26T20:13:45.841Z,19.93
2019-03-26T20:16:27.389Z,19.63
2019-03-26T20:19:09.211Z,20.83
2019-03-26T20:21:49.963Z,14.03
2019-03-26T20:24:30.333Z,15.43
2019-03-26T20:27:11.187Z,19.93
2019-03-26T20:29:51.707Z,10.33
2019-03-26T20:32:32.181Z,16.77
2019-03-26T20:35:12.744Z,14.90
2019-03-26T20:37:53.432Z,16.97
2019-03-26T20:40:34.207Z,18.60
2019-03-26T20:43:14.725Z,13.70
2019-03-26T20:45:55.143Z,17.63
2019-03-26T20:48:36.112Z,15.17
2019-03-26T20:51:16.760Z,15.87
2019-03-26T20:54:16.562Z,12.77
2019-03-26T21:00:04.566Z,15.10
2019-03-26T21:02:45.661Z,11.83
2019-03-26T21:05:26.331Z,14.37
2019-03-26T21:08:06.707Z,14.87
2019-03-26T21:10:47.257Z,18.70
2019-03-26T21:13:27.755Z,20.07
2019-03-26T21:16:08.451Z,21.93
2019-03-26T21:18:49.256Z,18.37
2019-03-26T21:21:29.940Z,12.57
2019-03-26T21:24:10.506Z,16.80
2019-03-26T21:26:50.842Z,18.10
2019-03-26T21:29:31.554Z,17.00
2019-03-26T21:32:12.246Z,18.93
2019-03-26T21:34:53.163Z,15.93
2019-03-26T21:37:34.446Z,18.40
2019-03-26T21:40:15.141Z,20.30
2019-03-26T21:42:55.778Z,19.23
2019-03-26T21:45:36.181Z,15.80
2019-03-26T21:48:16.651Z,21.20
2019-03-26T21:50:57.300Z,14.47
2019-03-26T21:53:38.356Z,18.43
2019-03-26T21:56:19.318Z,17.97
2019-03-26T21:59:00.174Z,16.33
2019-03-26T22:01:40.733Z,15.20
2019-03-26T22:04:21.366Z,14.87
2019-03-26T22:07:02.150Z,18.97
2019-03-26T22:09:42.805Z,18.70
2019-03-26T22:12:23.692Z,14.37
2019-03-26T22:15:04.177Z,15.10
2019-03-26T22:17:44.773Z,13.27
2019-03-26T22:20:25.086Z,13.80
2019-03-26T22:23:05.603Z,16.00
2019-03-26T22:25:46.272Z,13.33
2019-03-26T22:28:27.162Z,13.43
2019-03-26T22:31:07.862Z,14.17
2019-03-26T22:37:07.837Z,16.70
2019-03-26T22:39:48.630Z,16.73
2019-03-26T22:42:29.521Z,9.97
2019-03-26T22:45:10.248Z,15.10
2019-03-26T22:47:50.524Z,12.60
2019-03-26T22:50:31.489Z,14.30
2019-03-26T22:53:12.211Z,11.23
2019-03-26T22:55:53.002Z,16.93
2019-03-26T22:58:33.820Z,18.93
2019-03-26T23:01:14.575Z,17.50
2019-03-26T23:03:55.095Z,14.10
2019-03-26T23:06:35.815Z,14.93
2019-03-26T23:09:16.292Z,17.00
2019-03-26T23:11:57.091Z,16.40
2019-03-26T23:14:45.169Z,19.03
2019-03-26T23:17:20.461Z,17.93
2019-03-26T23:20:01.302Z,14.37
2019-03-26T23:25:47.305Z,18.40
2019-03-26T23:28:28.102Z,14.00
2019-03-26T23:37:30.084Z,14.83
2019-03-26T23:40:10.972Z,17.77
2019-03-26T23:42:51.631Z,18.93
2019-03-26T23:45:51.397Z,17.53
2019-03-26T23:48:51.616Z,15.27
2019-03-26T23:54:14.807Z,22.13
